PWSweather.com
Personal Weather Stations
Station Observations
TENMILE2
Watts Bar Lake, Ten Mile, TN 37880

Watts Bar LakeTen Mile, TN 37880

Lat: 35.686, Lon: -84.7068

Elevation: 767

Station Type: Davis Vue

http://www.wattsbarweather.org

High Low Average
Temperature 47.6°F8.7°C 27.4°F-2.6°C 38.0°F3.3°C
Dew Point 41.2°F5.1°C 24.4°F-4.2°C 28.6°F-1.9°C
Winds 7.6 mph 12.2 kmh Calm Calm 3.0 mph SSW4.8 kmh SSW
Wind Gusts 17.5 mph28.2 kmh -- 8.0 mph12.9 kmh
Humidity 89% 44% 71%
Pressure 30.44 in1030.8 mb 30.30 in1026.1 mb -
Precipitation 0.00 in0.0 mm - -
Hour Temp Dew Point Humidity Winds Wind Gusts Pressure Precip Precip Rate Daily Precip Total
12:02 AM 44.9°F7.2°C 41.2°F5.1°C 87% 4.6 mph N7.4 kmh N 12.0 mph19.3 kmh 30.30 in1026.1 mb 0.00 in0.0 mm 0.00 in0.0 mm 0.00 in0.0 mm
12:07 AM 44.8°F7.1°C 41.1°F5.1°C 87% 2.1 mph W3.4 kmh W 10.0 mph16.1 kmh 30.30 in1026.1 mb 0.00 in0.0 mm 0.00 in0.0 mm 0.00 in0.0 mm
12:12 AM 44.7°F7.1°C 41.0°F5.0°C 87% 2.0 mph NNW3.2 kmh NNW 8.8 mph14.2 kmh 30.30 in1026.1 mb 0.00 in0.0 mm 0.00 in0.0 mm 0.00 in0.0 mm
12:17 AM 44.6°F7.0°C 40.9°F4.9°C 87% 1.9 mph NW3.1 kmh NW 12.5 mph20.1 kmh 30.31 in1026.4 mb 0.00 in0.0 mm 0.00 in0.0 mm 0.00 in0.0 mm
12:22 AM 44.5°F6.9°C 40.8°F4.9°C 87% 2.9 mph N4.7 kmh N 12.5 mph20.1 kmh 30.31 in1026.4 mb 0.00 in0.0 mm 0.00 in0.0 mm 0.00 in0.0 mm
12:27 AM 44.4°F6.9°C 40.7°F4.8°C 87% 2.7 mph NNE4.3 kmh NNE 9.0 mph14.5 kmh 30.31 in1026.4 mb 0.00 in0.0 mm 0.00 in0.0 mm 0.00 in0.0 mm
12:32 AM 44.2°F6.8°C 40.3°F4.6°C 86% 2.0 mph W3.2 kmh W 10.0 mph16.1 kmh 30.31 in1026.4 mb 0.00 in0.0 mm 0.00 in0.0 mm 0.00 in0.0 mm
12:37 AM 44.1°F6.7°C 40.2°F4.6°C 86% 2.3 mph NNW3.7 kmh NNW 15.0 mph24.1 kmh 30.31 in1026.4 mb 0.00 in0.0 mm 0.00 in0.0 mm 0.00 in0.0 mm
12:42 AM 43.9°F6.6°C 40.0°F4.4°C 86% 2.5 mph NNW4.0 kmh NNW 15.0 mph24.1 kmh 30.31 in1026.4 mb 0.00 in0.0 mm 0.00 in0.0 mm 0.00 in0.0 mm
12:47 AM 43.8°F6.6°C 39.9°F4.4°C 86% 2.8 mph NW4.5 kmh NW 10.0 mph16.1 kmh 30.31 in1026.4 mb 0.00 in0.0 mm 0.00 in0.0 mm 0.00 in0.0 mm
12:52 AM 43.6°F6.4°C 39.4°F4.1°C 85% 4.8 mph N7.7 kmh N 11.3 mph18.2 kmh 30.31 in1026.4 mb 0.00 in0.0 mm 0.00 in0.0 mm 0.00 in0.0 mm
12:57 AM 43.3°F6.3°C 39.1°F3.9°C 85% 6.4 mph NNW10.3 kmh NNW 11.3 mph18.2 kmh 30.32 in1026.8 mb 0.00 in0.0 mm 0.00 in0.0 mm 0.00 in0.0 mm
01:02 AM 43.1°F6.2°C 39.2°F4.0°C 86% 4.1 mph N6.6 kmh N 11.3 mph18.2 kmh 30.32 in1026.8 mb 0.00 in0.0 mm 0.00 in0.0 mm 0.00 in0.0 mm
01:07 AM 42.9°F6.1°C 39.0°F3.9°C 86% 5.8 mph N9.3 kmh N 15.0 mph24.1 kmh 30.32 in1026.8 mb 0.00 in0.0 mm 0.00 in0.0 mm 0.00 in0.0 mm
01:13 AM 42.7°F5.9°C 39.1°F3.9°C 87% 2.5 mph N4.0 kmh N 15.0 mph24.1 kmh 30.32 in1026.8 mb 0.00 in0.0 mm 0.00 in0.0 mm 0.00 in0.0 mm
01:18 AM 42.6°F5.9°C 39.0°F3.9°C 87% 3.2 mph NNW5.1 kmh NNW 12.5 mph20.1 kmh 30.33 in1027.1 mb 0.00 in0.0 mm 0.00 in0.0 mm 0.00 in0.0 mm
01:23 AM 42.4°F5.8°C 38.8°F3.8°C 87% 4.3 mph N6.9 kmh N 11.3 mph18.2 kmh 30.33 in1027.1 mb 0.00 in0.0 mm 0.00 in0.0 mm 0.00 in0.0 mm
01:28 AM 42.2°F5.7°C 38.6°F3.7°C 87% 3.6 mph NNW5.8 kmh NNW 10.0 mph16.1 kmh 30.33 in1027.1 mb 0.00 in0.0 mm 0.00 in0.0 mm 0.00 in0.0 mm
01:33 AM 42.0°F5.6°C 38.4°F3.6°C 87% 1.6 mph SE2.6 kmh SE 10.0 mph16.1 kmh 30.33 in1027.1 mb 0.00 in0.0 mm 0.00 in0.0 mm 0.00 in0.0 mm
01:38 AM 41.6°F5.3°C 37.7°F3.2°C 86% 3.1 mph NE5.0 kmh NE 9.0 mph14.5 kmh 30.34 in1027.4 mb 0.00 in0.0 mm 0.00 in0.0 mm 0.00 in0.0 mm
01:43 AM 41.1°F5.1°C 37.2°F2.9°C 86% 5.9 mph N9.5 kmh N 12.5 mph20.1 kmh 30.34 in1027.4 mb 0.00 in0.0 mm 0.00 in0.0 mm 0.00 in0.0 mm
01:48 AM 40.8°F4.9°C 37.2°F2.9°C 87% 4.6 mph N7.4 kmh N 12.5 mph20.1 kmh 30.34 in1027.4 mb 0.00 in0.0 mm 0.00 in0.0 mm 0.00 in0.0 mm
01:53 AM 40.5°F4.7°C 36.9°F2.7°C 87% 1.8 mph N2.9 kmh N 10.0 mph16.1 kmh 30.33 in1027.1 mb 0.00 in0.0 mm 0.00 in0.0 mm 0.00 in0.0 mm
01:58 AM 40.3°F4.6°C 36.4°F2.4°C 86% 2.1 mph NW3.4 kmh NW 10.0 mph16.1 kmh 30.33 in1027.1 mb 0.00 in0.0 mm 0.00 in0.0 mm 0.00 in0.0 mm
02:03 AM 40.1°F4.5°C 36.5°F2.5°C 87% 3.2 mph NNW5.1 kmh NNW 10.0 mph16.1 kmh 30.33 in1027.1 mb 0.00 in0.0 mm 0.00 in0.0 mm 0.00 in0.0 mm
02:08 AM 40.0°F4.4°C 36.4°F2.4°C 87% 1.7 mph N2.7 kmh N 10.0 mph16.1 kmh 30.33 in1027.1 mb 0.00 in0.0 mm 0.00 in0.0 mm 0.00 in0.0 mm
02:13 AM 39.9°F4.4°C 36.3°F2.4°C 87% 3.4 mph NNW5.5 kmh NNW 12.5 mph20.1 kmh 30.33 in1027.1 mb 0.00 in0.0 mm 0.00 in0.0 mm 0.00 in0.0 mm
02:18 AM 39.7°F4.3°C 36.1°F2.3°C 87% 5.0 mph N8.0 kmh N 12.5 mph20.1 kmh 30.34 in1027.4 mb 0.00 in0.0 mm 0.00 in0.0 mm 0.00 in0.0 mm
02:23 AM 39.5°F4.2°C 35.6°F2.0°C 86% 5.2 mph 8.4 kmh 12.5 mph20.1 kmh 30.34 in1027.4 mb 0.00 in0.0 mm 0.00 in0.0 mm 0.00 in0.0 mm
02:28 AM 39.2°F4.0°C 35.3°F1.8°C 86% 4.6 mph NNE7.4 kmh NNE 11.3 mph18.2 kmh 30.34 in1027.4 mb 0.00 in0.0 mm 0.00 in0.0 mm 0.00 in0.0 mm
02:33 AM 38.9°F3.8°C 35.0°F1.7°C 86% 1.9 mph NNW3.1 kmh NNW 11.3 mph18.2 kmh 30.34 in1027.4 mb 0.00 in0.0 mm 0.00 in0.0 mm 0.00 in0.0 mm
02:38 AM 38.7°F3.7°C 34.6°F1.4°C 85% 3.2 mph N5.1 kmh N 15.0 mph24.1 kmh 30.35 in1027.8 mb 0.00 in0.0 mm 0.00 in0.0 mm 0.00 in0.0 mm
02:43 AM 38.4°F3.6°C 34.3°F1.3°C 85% 4.7 mph NW7.6 kmh NW 15.0 mph24.1 kmh 30.35 in1027.8 mb 0.00 in0.0 mm 0.00 in0.0 mm 0.00 in0.0 mm
02:48 AM 38.1°F3.4°C 33.4°F0.8°C 83% 4.6 mph N7.4 kmh N 12.0 mph19.3 kmh 30.36 in1028.1 mb 0.00 in0.0 mm 0.00 in0.0 mm 0.00 in0.0 mm
02:53 AM 37.9°F3.3°C 33.5°F0.8°C 84% 4.3 mph N6.9 kmh N 12.0 mph19.3 kmh 30.36 in1028.1 mb 0.00 in0.0 mm 0.00 in0.0 mm 0.00 in0.0 mm
02:58 AM 37.7°F3.2°C 33.6°F0.9°C 85% 1.7 mph N2.7 kmh N 11.3 mph18.2 kmh 30.36 in1028.1 mb 0.00 in0.0 mm 0.00 in0.0 mm 0.00 in0.0 mm
03:03 AM 37.6°F3.1°C 33.2°F0.7°C 84% 2.7 mph NW4.3 kmh NW 10.0 mph16.1 kmh 30.36 in1028.1 mb 0.00 in0.0 mm 0.00 in0.0 mm 0.00 in0.0 mm
03:08 AM 37.6°F3.1°C 33.2°F0.7°C 84% 1.4 mph SSE2.3 kmh SSE 10.0 mph16.1 kmh 30.36 in1028.1 mb 0.00 in0.0 mm 0.00 in0.0 mm 0.00 in0.0 mm
03:13 AM 37.5°F3.1°C 33.1°F0.6°C 84% 1.5 mph NNW2.4 kmh NNW 17.0 mph27.4 kmh 30.36 in1028.1 mb 0.00 in0.0 mm 0.00 in0.0 mm 0.00 in0.0 mm
03:18 AM 37.3°F2.9°C 32.9°F0.5°C 84% 1.7 mph W2.7 kmh W 17.0 mph27.4 kmh 30.36 in1028.1 mb 0.00 in0.0 mm 0.00 in0.0 mm 0.00 in0.0 mm
03:23 AM 37.2°F2.9°C 32.5°F0.3°C 83% 3.5 mph N5.6 kmh N 16.0 mph25.7 kmh 30.36 in1028.1 mb 0.00 in0.0 mm 0.00 in0.0 mm 0.00 in0.0 mm
03:28 AM 37.0°F2.8°C 32.3°F0.2°C 83% 2.8 mph NNW4.5 kmh NNW 16.0 mph25.7 kmh 30.36 in1028.1 mb 0.00 in0.0 mm 0.00 in0.0 mm 0.00 in0.0 mm
03:33 AM 36.9°F2.7°C 31.9°F-0.1°C 82% 3.8 mph N6.1 kmh N 12.5 mph20.1 kmh 30.37 in1028.4 mb 0.00 in0.0 mm 0.00 in0.0 mm 0.00 in0.0 mm
03:38 AM 36.8°F2.7°C 31.8°F-0.1°C 82% 4.7 mph N7.6 kmh N 12.5 mph20.1 kmh 30.37 in1028.4 mb 0.00 in0.0 mm 0.00 in0.0 mm 0.00 in0.0 mm
03:43 AM 36.8°F2.7°C 31.8°F-0.1°C 82% 2.9 mph NNW4.7 kmh NNW 12.5 mph20.1 kmh 30.37 in1028.4 mb 0.00 in0.0 mm 0.00 in0.0 mm 0.00 in0.0 mm
03:48 AM 36.7°F2.6°C 31.4°F-0.3°C 81% 4.4 mph N7.1 kmh N 11.3 mph18.2 kmh 30.37 in1028.4 mb 0.00 in0.0 mm 0.00 in0.0 mm 0.00 in0.0 mm
03:53 AM 36.6°F2.6°C 31.6°F-0.2°C 82% 4.4 mph N7.1 kmh N 11.3 mph18.2 kmh 30.37 in1028.4 mb 0.00 in0.0 mm 0.00 in0.0 mm 0.00 in0.0 mm
03:58 AM 36.6°F2.6°C 31.6°F-0.2°C 82% 4.6 mph N7.4 kmh N 16.3 mph26.2 kmh 30.37 in1028.4 mb 0.00 in0.0 mm 0.00 in0.0 mm 0.00 in0.0 mm
04:03 AM 36.6°F2.6°C 31.6°F-0.2°C 82% 3.5 mph N5.6 kmh N 16.3 mph26.2 kmh 30.37 in1028.4 mb 0.00 in0.0 mm 0.00 in0.0 mm 0.00 in0.0 mm
04:08 AM 36.5°F2.5°C 31.2°F-0.4°C 81% 2.3 mph N3.7 kmh N 13.0 mph20.9 kmh 30.37 in1028.4 mb 0.00 in0.0 mm 0.00 in0.0 mm 0.00 in0.0 mm
04:13 AM 36.5°F2.5°C 31.5°F-0.3°C 82% 3.3 mph NE5.3 kmh NE 13.0 mph20.9 kmh 30.37 in1028.4 mb 0.00 in0.0 mm 0.00 in0.0 mm 0.00 in0.0 mm
04:18 AM 36.3°F2.4°C 31.0°F-0.6°C 81% 4.2 mph N6.8 kmh N 11.3 mph18.2 kmh 30.37 in1028.4 mb 0.00 in0.0 mm 0.00 in0.0 mm 0.00 in0.0 mm
04:23 AM 36.2°F2.3°C 30.9°F-0.6°C 81% 3.8 mph N6.1 kmh N 11.3 mph18.2 kmh 30.37 in1028.4 mb 0.00 in0.0 mm 0.00 in0.0 mm 0.00 in0.0 mm
04:28 AM 36.2°F2.3°C 31.2°F-0.4°C 82% 3.3 mph NNE5.3 kmh NNE 10.0 mph16.1 kmh 30.37 in1028.4 mb 0.00 in0.0 mm 0.00 in0.0 mm 0.00 in0.0 mm
04:33 AM 36.1°F2.3°C 30.8°F-0.7°C 81% 2.8 mph N4.5 kmh N 9.0 mph14.5 kmh 30.37 in1028.4 mb 0.00 in0.0 mm 0.00 in0.0 mm 0.00 in0.0 mm
04:38 AM 36.1°F2.3°C 31.1°F-0.5°C 82% 1.7 mph W2.7 kmh W 7.5 mph12.1 kmh 30.37 in1028.4 mb 0.00 in0.0 mm 0.00 in0.0 mm 0.00 in0.0 mm
04:43 AM 36.0°F2.2°C 30.7°F-0.7°C 81% 3.5 mph N5.6 kmh N 12.5 mph20.1 kmh 30.38 in1028.8 mb 0.00 in0.0 mm 0.00 in0.0 mm 0.00 in0.0 mm
04:48 AM 36.0°F2.2°C 30.7°F-0.7°C 81% 2.8 mph NNW4.5 kmh NNW 12.5 mph20.1 kmh 30.38 in1028.8 mb 0.00 in0.0 mm 0.00 in0.0 mm 0.00 in0.0 mm
04:53 AM 36.0°F2.2°C 30.7°F-0.7°C 81% 4.7 mph N7.6 kmh N 10.0 mph16.1 kmh 30.38 in1028.8 mb 0.00 in0.0 mm 0.00 in0.0 mm 0.00 in0.0 mm
04:58 AM 35.9°F2.2°C 30.9°F-0.6°C 82% 2.0 mph NNW3.2 kmh NNW 10.0 mph16.1 kmh 30.38 in1028.8 mb 0.00 in0.0 mm 0.00 in0.0 mm 0.00 in0.0 mm
05:03 AM 35.9°F2.2°C 30.6°F-0.8°C 81% 2.5 mph N4.0 kmh N 8.0 mph12.9 kmh 30.38 in1028.8 mb 0.00 in0.0 mm 0.00 in0.0 mm 0.00 in0.0 mm
05:08 AM 35.7°F2.1°C 30.4°F-0.9°C 81% 2.3 mph NNW3.7 kmh NNW 15.0 mph24.1 kmh 30.38 in1028.8 mb 0.00 in0.0 mm 0.00 in0.0 mm 0.00 in0.0 mm
05:13 AM 35.6°F2.0°C 30.3°F-0.9°C 81% 4.6 mph N7.4 kmh N 15.0 mph24.1 kmh 30.38 in1028.8 mb 0.00 in0.0 mm 0.00 in0.0 mm 0.00 in0.0 mm
05:18 AM 35.6°F2.0°C 30.3°F-0.9°C 81% 3.5 mph NNW5.6 kmh NNW 12.0 mph19.3 kmh 30.38 in1028.8 mb 0.00 in0.0 mm 0.00 in0.0 mm 0.00 in0.0 mm
05:23 AM 35.5°F1.9°C 30.3°F-0.9°C 81% 3.1 mph 5.0 kmh 12.0 mph19.3 kmh 30.38 in1028.8 mb 0.00 in0.0 mm 0.00 in0.0 mm 0.00 in0.0 mm
05:28 AM 35.4°F1.9°C 30.2°F-1.0°C 81% 5.6 mph N9.0 kmh N 11.3 mph18.2 kmh 30.38 in1028.8 mb 0.00 in0.0 mm 0.00 in0.0 mm 0.00 in0.0 mm
05:33 AM 35.3°F1.8°C 30.1°F-1.1°C 81% 4.6 mph N7.4 kmh N 11.3 mph18.2 kmh 30.38 in1028.8 mb 0.00 in0.0 mm 0.00 in0.0 mm 0.00 in0.0 mm
05:38 AM 35.3°F1.8°C 30.1°F-1.1°C 81% 3.0 mph N4.8 kmh N 11.3 mph18.2 kmh 30.38 in1028.8 mb 0.00 in0.0 mm 0.00 in0.0 mm 0.00 in0.0 mm
05:43 AM 35.3°F1.8°C 30.4°F-0.9°C 82% 1.3 mph SSE2.1 kmh SSE 9.0 mph14.5 kmh 30.39 in1029.1 mb 0.00 in0.0 mm 0.00 in0.0 mm 0.00 in0.0 mm
05:48 AM 35.1°F1.7°C 29.9°F-1.2°C 81% 3.4 mph N5.5 kmh N 9.0 mph14.5 kmh 30.39 in1029.1 mb 0.00 in0.0 mm 0.00 in0.0 mm 0.00 in0.0 mm
05:53 AM 34.9°F1.6°C 30.0°F-1.1°C 82% 3.5 mph N5.6 kmh N 8.8 mph14.2 kmh 30.39 in1029.1 mb 0.00 in0.0 mm 0.00 in0.0 mm 0.00 in0.0 mm
05:58 AM 34.8°F1.6°C 29.6°F-1.3°C 81% 1.8 mph NW2.9 kmh NW 17.5 mph28.2 kmh 30.39 in1029.1 mb 0.00 in0.0 mm 0.00 in0.0 mm 0.00 in0.0 mm
06:04 AM 34.5°F1.4°C 29.6°F-1.3°C 82% 1.6 mph N2.6 kmh N 17.5 mph28.2 kmh 30.39 in1029.1 mb 0.00 in0.0 mm 0.00 in0.0 mm 0.00 in0.0 mm
06:09 AM 34.3°F1.3°C 29.4°F-1.4°C 82% 1.4 mph NNW2.3 kmh NNW 13.0 mph20.9 kmh 30.39 in1029.1 mb 0.00 in0.0 mm 0.00 in0.0 mm 0.00 in0.0 mm
06:14 AM 34.2°F1.2°C 29.0°F-1.7°C 81% 6.3 mph N10.1 kmh N 16.3 mph26.2 kmh 30.39 in1029.1 mb 0.00 in0.0 mm 0.00 in0.0 mm 0.00 in0.0 mm
06:19 AM 34.1°F1.2°C 28.9°F-1.7°C 81% 5.6 mph N9.0 kmh N 16.3 mph26.2 kmh 30.39 in1029.1 mb 0.00 in0.0 mm 0.00 in0.0 mm 0.00 in0.0 mm
06:24 AM 33.9°F1.1°C 28.1°F-2.2°C 79% 5.1 mph NNW8.2 kmh NNW 13.0 mph20.9 kmh 30.40 in1029.5 mb 0.00 in0.0 mm 0.00 in0.0 mm 0.00 in0.0 mm
06:29 AM 33.7°F0.9°C 27.3°F-2.6°C 77% 5.0 mph N8.0 kmh N 13.8 mph22.2 kmh 30.40 in1029.5 mb 0.00 in0.0 mm 0.00 in0.0 mm 0.00 in0.0 mm
06:34 AM 33.4°F0.8°C 26.7°F-2.9°C 76% 3.9 mph N6.3 kmh N 13.8 mph22.2 kmh 30.41 in1029.8 mb 0.00 in0.0 mm 0.00 in0.0 mm 0.00 in0.0 mm
06:39 AM 33.2°F0.7°C 26.2°F-3.2°C 75% 4.6 mph N7.4 kmh N 11.0 mph17.7 kmh 30.41 in1029.8 mb 0.00 in0.0 mm 0.00 in0.0 mm 0.00 in0.0 mm
06:44 AM 33.0°F0.6°C 26.3°F-3.2°C 76% 3.1 mph N5.0 kmh N 11.0 mph17.7 kmh 30.41 in1029.8 mb 0.00 in0.0 mm 0.00 in0.0 mm 0.00 in0.0 mm
06:49 AM 33.0°F0.6°C 26.9°F-2.8°C 78% 1.3 mph NNW2.1 kmh NNW 10.0 mph16.1 kmh 30.41 in1029.8 mb 0.00 in0.0 mm 0.00 in0.0 mm 0.00 in0.0 mm
06:54 AM 32.8°F0.4°C 26.4°F-3.1°C 77% 4.2 mph N6.8 kmh N 10.0 mph16.1 kmh 30.41 in1029.8 mb 0.00 in0.0 mm 0.00 in0.0 mm 0.00 in0.0 mm
06:59 AM 32.8°F0.4°C 26.7°F-2.9°C 78% 2.3 mph N3.7 kmh N 10.0 mph16.1 kmh 30.41 in1029.8 mb 0.00 in0.0 mm 0.00 in0.0 mm 0.00 in0.0 mm
07:04 AM 32.7°F0.4°C 26.6°F-3.0°C 78% 3.4 mph NW5.5 kmh NW 9.0 mph14.5 kmh 30.41 in1029.8 mb 0.00 in0.0 mm 0.00 in0.0 mm 0.00 in0.0 mm
07:09 AM 32.7°F0.4°C 26.6°F-3.0°C 78% 2.9 mph N4.7 kmh N 15.0 mph24.1 kmh 30.41 in1029.8 mb 0.00 in0.0 mm 0.00 in0.0 mm 0.00 in0.0 mm
07:14 AM 32.8°F0.4°C 26.4°F-3.1°C 77% 4.8 mph N7.7 kmh N 15.0 mph24.1 kmh 30.41 in1029.8 mb 0.00 in0.0 mm 0.00 in0.0 mm 0.00 in0.0 mm
07:19 AM 32.8°F0.4°C 27.0°F-2.8°C 79% 1.6 mph N2.6 kmh N 12.0 mph19.3 kmh 30.42 in1030.1 mb 0.00 in0.0 mm 0.00 in0.0 mm 0.00 in0.0 mm
07:24 AM 32.8°F0.4°C 26.7°F-2.9°C 78% 3.3 mph N5.3 kmh N 12.0 mph19.3 kmh 30.42 in1030.1 mb 0.00 in0.0 mm 0.00 in0.0 mm 0.00 in0.0 mm
07:29 AM 32.8°F0.4°C 26.7°F-2.9°C 78% 2.3 mph W3.7 kmh W 8.0 mph12.9 kmh 30.42 in1030.1 mb 0.00 in0.0 mm 0.00 in0.0 mm 0.00 in0.0 mm
07:34 AM 32.9°F0.5°C 26.8°F-2.9°C 78% 3.8 mph NNW6.1 kmh NNW 8.8 mph14.2 kmh 30.42 in1030.1 mb 0.00 in0.0 mm 0.00 in0.0 mm 0.00 in0.0 mm
07:39 AM 32.9°F0.5°C 27.1°F-2.7°C 79% 2.9 mph NNW4.7 kmh NNW 8.8 mph14.2 kmh 30.42 in1030.1 mb 0.00 in0.0 mm 0.00 in0.0 mm 0.00 in0.0 mm
07:44 AM 33.0°F0.6°C 26.9°F-2.8°C 78% 3.0 mph NE4.8 kmh NE 8.0 mph12.9 kmh 30.42 in1030.1 mb 0.00 in0.0 mm 0.00 in0.0 mm 0.00 in0.0 mm
07:49 AM 33.1°F0.6°C 27.0°F-2.8°C 78% 2.4 mph N3.9 kmh N 7.0 mph11.3 kmh 30.42 in1030.1 mb 0.00 in0.0 mm 0.00 in0.0 mm 0.00 in0.0 mm
07:54 AM 33.1°F0.6°C 27.0°F-2.8°C 78% 1.9 mph NW3.1 kmh NW 7.5 mph12.1 kmh 30.42 in1030.1 mb 0.00 in0.0 mm 0.00 in0.0 mm 0.00 in0.0 mm
07:59 AM 33.2°F0.7°C 27.1°F-2.7°C 78% 1.3 mph N2.1 kmh N 7.5 mph12.1 kmh 30.42 in1030.1 mb 0.00 in0.0 mm 0.00 in0.0 mm 0.00 in0.0 mm
08:04 AM 33.2°F0.7°C 26.8°F-2.9°C 77% 2.8 mph N4.5 kmh N 6.0 mph9.7 kmh 30.43 in1030.5 mb 0.00 in0.0 mm 0.00 in0.0 mm 0.00 in0.0 mm
08:09 AM 33.2°F0.7°C 26.8°F-2.9°C 77% 1.7 mph N2.7 kmh N 6.3 mph10.1 kmh 30.43 in1030.5 mb 0.00 in0.0 mm 0.00 in0.0 mm 0.00 in0.0 mm
08:14 AM 33.1°F0.6°C 26.4°F-3.1°C 76% 4.2 mph N6.8 kmh N 7.5 mph12.1 kmh 30.43 in1030.5 mb 0.00 in0.0 mm 0.00 in0.0 mm 0.00 in0.0 mm
08:19 AM 33.2°F0.7°C 26.5°F-3.1°C 76% 2.5 mph NNE4.0 kmh NNE 7.5 mph12.1 kmh 30.43 in1030.5 mb 0.00 in0.0 mm 0.00 in0.0 mm 0.00 in0.0 mm
08:24 AM 33.2°F0.7°C 26.8°F-2.9°C 77% 1.8 mph NE2.9 kmh NE 6.3 mph10.1 kmh 30.43 in1030.5 mb 0.00 in0.0 mm 0.00 in0.0 mm 0.00 in0.0 mm
08:29 AM 33.3°F0.7°C 26.9°F-2.8°C 77% 2.5 mph NNW4.0 kmh NNW 6.3 mph10.1 kmh 30.43 in1030.5 mb 0.00 in0.0 mm 0.00 in0.0 mm 0.00 in0.0 mm
08:34 AM 33.6°F0.9°C 26.9°F-2.8°C 76% 1.4 mph NW2.3 kmh NW 10.0 mph16.1 kmh 30.43 in1030.5 mb 0.00 in0.0 mm 0.00 in0.0 mm 0.00 in0.0 mm
08:39 AM 34.0°F1.1°C 27.0°F-2.8°C 75% 4.3 mph NNE6.9 kmh NNE 10.0 mph16.1 kmh 30.44 in1030.8 mb 0.00 in0.0 mm 0.00 in0.0 mm 0.00 in0.0 mm
08:44 AM 34.2°F1.2°C 27.1°F-2.7°C 75% 3.0 mph N4.8 kmh N 8.8 mph14.2 kmh 30.44 in1030.8 mb 0.00 in0.0 mm 0.00 in0.0 mm 0.00 in0.0 mm
08:49 AM 34.4°F1.3°C 27.7°F-2.4°C 76% 1.8 mph WNW2.9 kmh WNW 8.8 mph14.2 kmh 30.44 in1030.8 mb 0.00 in0.0 mm 0.00 in0.0 mm 0.00 in0.0 mm
08:54 AM 34.8°F1.6°C 28.4°F-2.0°C 77% 2.5 mph N4.0 kmh N 8.8 mph14.2 kmh 30.44 in1030.8 mb 0.00 in0.0 mm 0.00 in0.0 mm 0.00 in0.0 mm
08:59 AM 34.9°F1.6°C 27.2°F-2.7°C 73% 3.4 mph 5.5 kmh 10.0 mph16.1 kmh 30.44 in1030.8 mb 0.00 in0.0 mm 0.00 in0.0 mm 0.00 in0.0 mm
09:04 AM 35.1°F1.7°C 27.7°F-2.4°C 74% 3.2 mph N5.1 kmh N 10.0 mph16.1 kmh 30.44 in1030.8 mb 0.00 in0.0 mm 0.00 in0.0 mm 0.00 in0.0 mm
09:09 AM 35.5°F1.9°C 28.1°F-2.2°C 74% 2.5 mph NNE4.0 kmh NNE 7.0 mph11.3 kmh 30.44 in1030.8 mb 0.00 in0.0 mm 0.00 in0.0 mm 0.00 in0.0 mm
09:14 AM 35.6°F2.0°C 27.9°F-2.3°C 73% 5.1 mph NNE8.2 kmh NNE 8.8 mph14.2 kmh 30.44 in1030.8 mb 0.00 in0.0 mm 0.00 in0.0 mm 0.00 in0.0 mm
09:19 AM 35.6°F2.0°C 28.2°F-2.1°C 74% 2.2 mph NW3.5 kmh NW 10.0 mph16.1 kmh 30.44 in1030.8 mb 0.00 in0.0 mm 0.00 in0.0 mm 0.00 in0.0 mm
09:24 AM 35.7°F2.1°C 27.6°F-2.4°C 72% 4.2 mph N6.8 kmh N 12.5 mph20.1 kmh 30.44 in1030.8 mb 0.00 in0.0 mm 0.00 in0.0 mm 0.00 in0.0 mm
09:29 AM 35.9°F2.2°C 27.1°F-2.7°C 70% 6.6 mph N10.6 kmh N 12.5 mph20.1 kmh 30.44 in1030.8 mb 0.00 in0.0 mm 0.00 in0.0 mm 0.00 in0.0 mm
09:34 AM 36.1°F2.3°C 27.3°F-2.6°C 70% 6.9 mph N11.1 kmh N 12.5 mph20.1 kmh 30.44 in1030.8 mb 0.00 in0.0 mm 0.00 in0.0 mm 0.00 in0.0 mm
09:39 AM 36.3°F2.4°C 27.9°F-2.3°C 71% 4.3 mph N6.9 kmh N 12.5 mph20.1 kmh 30.44 in1030.8 mb 0.00 in0.0 mm 0.00 in0.0 mm 0.00 in0.0 mm
09:44 AM 36.8°F2.7°C 28.0°F-2.2°C 70% 5.1 mph N8.2 kmh N 11.3 mph18.2 kmh 30.44 in1030.8 mb 0.00 in0.0 mm 0.00 in0.0 mm 0.00 in0.0 mm
09:49 AM 37.0°F2.8°C 27.8°F-2.3°C 69% 3.3 mph NNW5.3 kmh NNW 11.3 mph18.2 kmh 30.44 in1030.8 mb 0.00 in0.0 mm 0.00 in0.0 mm 0.00 in0.0 mm
09:54 AM 37.7°F3.2°C 28.5°F-1.9°C 69% 1.5 mph NNW2.4 kmh NNW 10.0 mph16.1 kmh 30.44 in1030.8 mb 0.00 in0.0 mm 0.00 in0.0 mm 0.00 in0.0 mm
09:59 AM 38.1°F3.4°C 27.8°F-2.3°C 66% 3.8 mph N6.1 kmh N 11.3 mph18.2 kmh 30.44 in1030.8 mb 0.00 in0.0 mm 0.00 in0.0 mm 0.00 in0.0 mm
10:04 AM 38.3°F3.5°C 28.4°F-2.0°C 67% 2.8 mph N4.5 kmh N 11.3 mph18.2 kmh 30.44 in1030.8 mb 0.00 in0.0 mm 0.00 in0.0 mm 0.00 in0.0 mm
10:09 AM 39.1°F3.9°C 28.4°F-2.0°C 65% 3.4 mph N5.5 kmh N 8.0 mph12.9 kmh 30.44 in1030.8 mb 0.00 in0.0 mm 0.00 in0.0 mm 0.00 in0.0 mm
10:14 AM 39.3°F4.1°C 28.6°F-1.9°C 65% 2.7 mph N4.3 kmh N 8.8 mph14.2 kmh 30.44 in1030.8 mb 0.00 in0.0 mm 0.00 in0.0 mm 0.00 in0.0 mm
10:19 AM 39.4°F4.1°C 27.9°F-2.3°C 63% 2.8 mph NNW4.5 kmh NNW 8.8 mph14.2 kmh 30.44 in1030.8 mb 0.00 in0.0 mm 0.00 in0.0 mm 0.00 in0.0 mm
10:24 AM 39.5°F4.2°C 28.8°F-1.8°C 65% 4.2 mph N6.8 kmh N 6.3 mph10.1 kmh 30.44 in1030.8 mb 0.00 in0.0 mm 0.00 in0.0 mm 0.00 in0.0 mm
10:29 AM 39.0°F3.9°C 27.2°F-2.7°C 62% 4.7 mph NNW7.6 kmh NNW 13.8 mph22.2 kmh 30.44 in1030.8 mb 0.00 in0.0 mm 0.00 in0.0 mm 0.00 in0.0 mm
10:34 AM 38.9°F3.8°C 27.1°F-2.7°C 62% 3.9 mph NNE6.3 kmh NNE 13.8 mph22.2 kmh 30.44 in1030.8 mb 0.00 in0.0 mm 0.00 in0.0 mm 0.00 in0.0 mm
10:39 AM 39.4°F4.1°C 28.7°F-1.8°C 65% 2.6 mph NW4.2 kmh NW 11.0 mph17.7 kmh 30.44 in1030.8 mb 0.00 in0.0 mm 0.00 in0.0 mm 0.00 in0.0 mm
10:44 AM 39.7°F4.3°C 27.4°F-2.6°C 61% 4.4 mph N7.1 kmh N 11.0 mph17.7 kmh 30.44 in1030.8 mb 0.00 in0.0 mm 0.00 in0.0 mm 0.00 in0.0 mm
10:49 AM 39.7°F4.3°C 27.4°F-2.6°C 61% 5.8 mph N9.3 kmh N 12.5 mph20.1 kmh 30.44 in1030.8 mb 0.00 in0.0 mm 0.00 in0.0 mm 0.00 in0.0 mm
10:54 AM 39.9°F4.4°C 28.4°F-2.0°C 63% 4.0 mph N6.4 kmh N 12.5 mph20.1 kmh 30.44 in1030.8 mb 0.00 in0.0 mm 0.00 in0.0 mm 0.00 in0.0 mm
10:59 AM 40.2°F4.6°C 27.5°F-2.5°C 60% 3.0 mph N4.8 kmh N 10.0 mph16.1 kmh 30.44 in1030.8 mb 0.00 in0.0 mm 0.00 in0.0 mm 0.00 in0.0 mm
11:05 AM 40.9°F4.9°C 29.0°F-1.7°C 62% 3.2 mph N5.1 kmh N 10.0 mph16.1 kmh 30.44 in1030.8 mb 0.00 in0.0 mm 0.00 in0.0 mm 0.00 in0.0 mm
11:10 AM 40.9°F4.9°C 27.3°F-2.6°C 58% 6.0 mph N9.7 kmh N 10.0 mph16.1 kmh 30.44 in1030.8 mb 0.00 in0.0 mm 0.00 in0.0 mm 0.00 in0.0 mm
11:15 AM 40.9°F4.9°C 29.0°F-1.7°C 62% 2.2 mph N3.5 kmh N 10.0 mph16.1 kmh 30.43 in1030.5 mb 0.00 in0.0 mm 0.00 in0.0 mm 0.00 in0.0 mm
11:20 AM 41.5°F5.3°C 28.7°F-1.8°C 60% 2.1 mph NNW3.4 kmh NNW 8.8 mph14.2 kmh 30.43 in1030.5 mb 0.00 in0.0 mm 0.00 in0.0 mm 0.00 in0.0 mm
11:25 AM 41.7°F5.4°C 27.2°F-2.7°C 56% 3.5 mph N5.6 kmh N 12.5 mph20.1 kmh 30.43 in1030.5 mb 0.00 in0.0 mm 0.00 in0.0 mm 0.00 in0.0 mm
11:30 AM 41.5°F5.3°C 27.4°F-2.6°C 57% 2.9 mph NNW4.7 kmh NNW 12.5 mph20.1 kmh 30.43 in1030.5 mb 0.00 in0.0 mm 0.00 in0.0 mm 0.00 in0.0 mm
11:35 AM 41.8°F5.4°C 27.7°F-2.4°C 57% 2.5 mph NNW4.0 kmh NNW 9.0 mph14.5 kmh 30.43 in1030.5 mb 0.00 in0.0 mm 0.00 in0.0 mm 0.00 in0.0 mm
11:40 AM 42.0°F5.6°C 27.9°F-2.3°C 57% 3.0 mph N4.8 kmh N 9.0 mph14.5 kmh 30.43 in1030.5 mb 0.00 in0.0 mm 0.00 in0.0 mm 0.00 in0.0 mm
11:45 AM 42.2°F5.7°C 29.4°F-1.4°C 60% 4.0 mph N6.4 kmh N 10.0 mph16.1 kmh 30.42 in1030.1 mb 0.00 in0.0 mm 0.00 in0.0 mm 0.00 in0.0 mm
11:50 AM 42.3°F5.7°C 26.8°F-2.9°C 54% 2.6 mph N4.2 kmh N 10.0 mph16.1 kmh 30.42 in1030.1 mb 0.00 in0.0 mm 0.00 in0.0 mm 0.00 in0.0 mm
11:55 AM 42.8°F6.0°C 27.8°F-2.3°C 55% 4.8 mph NNW7.7 kmh NNW 11.3 mph18.2 kmh 30.42 in1030.1 mb 0.00 in0.0 mm 0.00 in0.0 mm 0.00 in0.0 mm
12:00 PM 42.2°F5.7°C 27.2°F-2.7°C 55% 6.8 mph NNW10.9 kmh NNW 12.5 mph20.1 kmh 30.41 in1029.8 mb 0.00 in0.0 mm 0.00 in0.0 mm 0.00 in0.0 mm
12:05 PM 42.4°F5.8°C 27.4°F-2.6°C 55% 5.6 mph N9.0 kmh N 12.5 mph20.1 kmh 30.41 in1029.8 mb 0.00 in0.0 mm 0.00 in0.0 mm 0.00 in0.0 mm
12:10 PM 42.2°F5.7°C 26.7°F-2.9°C 54% 5.8 mph NNE9.3 kmh NNE 15.0 mph24.1 kmh 30.41 in1029.8 mb 0.00 in0.0 mm 0.00 in0.0 mm 0.00 in0.0 mm
12:15 PM 43.0°F6.1°C 28.4°F-2.0°C 56% 1.6 mph ESE2.6 kmh ESE 15.0 mph24.1 kmh 30.41 in1029.8 mb 0.00 in0.0 mm 0.00 in0.0 mm 0.00 in0.0 mm
12:20 PM 43.5°F6.4°C 27.0°F-2.8°C 52% 4.6 mph N7.4 kmh N 12.0 mph19.3 kmh 30.40 in1029.5 mb 0.00 in0.0 mm 0.00 in0.0 mm 0.00 in0.0 mm
12:25 PM 43.9°F6.6°C 26.4°F-3.1°C 50% 4.5 mph N7.2 kmh N 11.0 mph17.7 kmh 30.40 in1029.5 mb 0.00 in0.0 mm 0.00 in0.0 mm 0.00 in0.0 mm
12:30 PM 44.2°F6.8°C 27.7°F-2.4°C 52% 3.5 mph N5.6 kmh N 10.0 mph16.1 kmh 30.39 in1029.1 mb 0.00 in0.0 mm 0.00 in0.0 mm 0.00 in0.0 mm
12:35 PM 43.9°F6.6°C 26.9°F-2.8°C 51% 6.4 mph NNE10.3 kmh NNE 13.8 mph22.2 kmh 30.39 in1029.1 mb 0.00 in0.0 mm 0.00 in0.0 mm 0.00 in0.0 mm
12:40 PM 44.0°F6.7°C 26.5°F-3.1°C 50% 6.4 mph N10.3 kmh N 13.8 mph22.2 kmh 30.39 in1029.1 mb 0.00 in0.0 mm 0.00 in0.0 mm 0.00 in0.0 mm
12:45 PM 44.0°F6.7°C 27.5°F-2.5°C 52% 3.0 mph NW4.8 kmh NW 12.5 mph20.1 kmh 30.38 in1028.8 mb 0.00 in0.0 mm 0.00 in0.0 mm 0.00 in0.0 mm
12:50 PM 44.5°F6.9°C 27.0°F-2.8°C 50% 3.8 mph NNW6.1 kmh NNW 11.0 mph17.7 kmh 30.38 in1028.8 mb 0.00 in0.0 mm 0.00 in0.0 mm 0.00 in0.0 mm
12:55 PM 44.3°F6.8°C 26.8°F-2.9°C 50% 5.1 mph N8.2 kmh N 11.3 mph18.2 kmh 30.38 in1028.8 mb 0.00 in0.0 mm 0.00 in0.0 mm 0.00 in0.0 mm
01:00 PM 45.0°F7.2°C 27.9°F-2.3°C 51% 1.5 mph W2.4 kmh W 11.3 mph18.2 kmh 30.38 in1028.8 mb 0.00 in0.0 mm 0.00 in0.0 mm 0.00 in0.0 mm
01:05 PM 45.2°F7.3°C 26.6°F-3.0°C 48% 2.6 mph NNW4.2 kmh NNW 13.8 mph22.2 kmh 30.37 in1028.4 mb 0.00 in0.0 mm 0.00 in0.0 mm 0.00 in0.0 mm
01:10 PM 45.2°F7.3°C 26.1°F-3.3°C 47% 3.9 mph NNW6.3 kmh NNW 13.8 mph22.2 kmh 30.37 in1028.4 mb 0.00 in0.0 mm 0.00 in0.0 mm 0.00 in0.0 mm
01:15 PM 45.1°F7.3°C 26.5°F-3.1°C 48% 3.1 mph NE5.0 kmh NE 10.0 mph16.1 kmh 30.37 in1028.4 mb 0.00 in0.0 mm 0.00 in0.0 mm 0.00 in0.0 mm
01:20 PM 45.5°F7.5°C 25.8°F-3.4°C 46% 5.3 mph N8.5 kmh N 11.3 mph18.2 kmh 30.37 in1028.4 mb 0.00 in0.0 mm 0.00 in0.0 mm 0.00 in0.0 mm
01:25 PM 45.4°F7.4°C 26.3°F-3.2°C 47% 2.9 mph N4.7 kmh N 12.5 mph20.1 kmh 30.37 in1028.4 mb 0.00 in0.0 mm 0.00 in0.0 mm 0.00 in0.0 mm
01:30 PM 45.8°F7.7°C 27.1°F-2.7°C 48% 3.3 mph NNW5.3 kmh NNW 12.5 mph20.1 kmh 30.37 in1028.4 mb 0.00 in0.0 mm 0.00 in0.0 mm 0.00 in0.0 mm
01:35 PM 45.7°F7.6°C 26.5°F-3.1°C 47% 2.4 mph NNW3.9 kmh NNW 9.0 mph14.5 kmh 30.37 in1028.4 mb 0.00 in0.0 mm 0.00 in0.0 mm 0.00 in0.0 mm
01:40 PM 46.0°F7.8°C 27.3°F-2.6°C 48% 1.9 mph W3.1 kmh W 9.0 mph14.5 kmh 30.37 in1028.4 mb 0.00 in0.0 mm 0.00 in0.0 mm 0.00 in0.0 mm
01:45 PM 45.9°F7.7°C 26.2°F-3.2°C 46% 1.6 mph WSW2.6 kmh WSW 8.0 mph12.9 kmh 30.37 in1028.4 mb 0.00 in0.0 mm 0.00 in0.0 mm 0.00 in0.0 mm
01:50 PM 45.7°F7.6°C 26.5°F-3.1°C 47% 1.5 mph W2.4 kmh W 6.3 mph10.1 kmh 30.37 in1028.4 mb 0.00 in0.0 mm 0.00 in0.0 mm 0.00 in0.0 mm
01:55 PM 45.7°F7.6°C 26.0°F-3.3°C 46% 1.8 mph WSW2.9 kmh WSW 6.3 mph10.1 kmh 30.36 in1028.1 mb 0.00 in0.0 mm 0.00 in0.0 mm 0.00 in0.0 mm
02:00 PM 46.0°F7.8°C 26.8°F-2.9°C 47% 2.0 mph NNW3.2 kmh NNW 6.3 mph10.1 kmh 30.36 in1028.1 mb 0.00 in0.0 mm 0.00 in0.0 mm 0.00 in0.0 mm
02:05 PM 46.7°F8.2°C 27.4°F-2.6°C 47% 3.7 mph N6.0 kmh N 6.3 mph10.1 kmh 30.36 in1028.1 mb 0.00 in0.0 mm 0.00 in0.0 mm 0.00 in0.0 mm
02:10 PM 46.8°F8.2°C 28.6°F-1.9°C 49% 1.4 mph W2.3 kmh W 8.8 mph14.2 kmh 30.36 in1028.1 mb 0.00 in0.0 mm 0.00 in0.0 mm 0.00 in0.0 mm
02:15 PM 47.2°F8.4°C 28.4°F-2.0°C 48% 2.7 mph WNW4.3 kmh WNW 8.8 mph14.2 kmh 30.36 in1028.1 mb 0.00 in0.0 mm 0.00 in0.0 mm 0.00 in0.0 mm
02:20 PM 47.0°F8.3°C 28.3°F-2.1°C 48% 1.3 mph NW2.1 kmh NW 7.5 mph12.1 kmh 30.36 in1028.1 mb 0.00 in0.0 mm 0.00 in0.0 mm 0.00 in0.0 mm
02:25 PM 47.3°F8.5°C 28.5°F-1.9°C 48% 1.5 mph SSW2.4 kmh SSW 7.5 mph12.1 kmh 30.36 in1028.1 mb 0.00 in0.0 mm 0.00 in0.0 mm 0.00 in0.0 mm
02:30 PM 47.6°F8.7°C 27.7°F-2.4°C 46% 2.5 mph N4.0 kmh N 7.5 mph12.1 kmh 30.36 in1028.1 mb 0.00 in0.0 mm 0.00 in0.0 mm 0.00 in0.0 mm
02:35 PM 46.6°F8.1°C 25.7°F-3.5°C 44% 6.8 mph N10.9 kmh N 12.5 mph20.1 kmh 30.36 in1028.1 mb 0.00 in0.0 mm 0.00 in0.0 mm 0.00 in0.0 mm
02:40 PM 45.9°F7.7°C 26.2°F-3.2°C 46% 2.9 mph N4.7 kmh N 12.5 mph20.1 kmh 30.35 in1027.8 mb 0.00 in0.0 mm 0.00 in0.0 mm 0.00 in0.0 mm
02:45 PM 45.9°F7.7°C 26.2°F-3.2°C 46% 6.5 mph N10.5 kmh N 11.3 mph18.2 kmh 30.35 in1027.8 mb 0.00 in0.0 mm 0.00 in0.0 mm 0.00 in0.0 mm
02:50 PM 45.7°F7.6°C 27.1°F-2.7°C 48% 1.5 mph WSW2.4 kmh WSW 11.3 mph18.2 kmh 30.35 in1027.8 mb 0.00 in0.0 mm 0.00 in0.0 mm 0.00 in0.0 mm
02:55 PM 46.0°F7.8°C 26.8°F-2.9°C 47% 3.6 mph N5.8 kmh N 10.0 mph16.1 kmh 30.35 in1027.8 mb 0.00 in0.0 mm 0.00 in0.0 mm 0.00 in0.0 mm
03:00 PM 45.6°F7.6°C 27.0°F-2.8°C 48% 5.5 mph 8.9 kmh 11.3 mph18.2 kmh 30.35 in1027.8 mb 0.00 in0.0 mm 0.00 in0.0 mm 0.00 in0.0 mm
03:05 PM 45.5°F7.5°C 26.3°F-3.2°C 47% 4.8 mph N7.7 kmh N 12.5 mph20.1 kmh 30.35 in1027.8 mb 0.00 in0.0 mm 0.00 in0.0 mm 0.00 in0.0 mm
03:10 PM 45.4°F7.4°C 26.8°F-2.9°C 48% 3.9 mph NNW6.3 kmh NNW 12.5 mph20.1 kmh 30.35 in1027.8 mb 0.00 in0.0 mm 0.00 in0.0 mm 0.00 in0.0 mm
03:15 PM 45.6°F7.6°C 27.5°F-2.5°C 49% 2.5 mph NE4.0 kmh NE 10.0 mph16.1 kmh 30.35 in1027.8 mb 0.00 in0.0 mm 0.00 in0.0 mm 0.00 in0.0 mm
03:20 PM 45.9°F7.7°C 27.2°F-2.7°C 48% 7.6 mph NNW12.2 kmh NNW 12.5 mph20.1 kmh 30.35 in1027.8 mb 0.00 in0.0 mm 0.00 in0.0 mm 0.00 in0.0 mm
03:25 PM 45.8°F7.7°C 27.1°F-2.7°C 48% 3.4 mph N5.5 kmh N 12.5 mph20.1 kmh 30.35 in1027.8 mb 0.00 in0.0 mm 0.00 in0.0 mm 0.00 in0.0 mm
03:30 PM 46.0°F7.8°C 27.3°F-2.6°C 48% 3.3 mph 5.3 kmh 10.0 mph16.1 kmh 30.35 in1027.8 mb 0.00 in0.0 mm 0.00 in0.0 mm 0.00 in0.0 mm
03:35 PM 46.2°F7.9°C 27.0°F-2.8°C 47% 4.0 mph NNW6.4 kmh NNW 10.0 mph16.1 kmh 30.35 in1027.8 mb 0.00 in0.0 mm 0.00 in0.0 mm 0.00 in0.0 mm
03:41 PM 46.1°F7.8°C 26.9°F-2.8°C 47% 2.5 mph NE4.0 kmh NE 7.5 mph12.1 kmh 30.35 in1027.8 mb 0.00 in0.0 mm 0.00 in0.0 mm 0.00 in0.0 mm
03:45 PM 45.9°F7.7°C 26.7°F-2.9°C 47% 5.5 mph N8.9 kmh N 11.3 mph18.2 kmh 30.35 in1027.8 mb 0.00 in0.0 mm 0.00 in0.0 mm 0.00 in0.0 mm
03:51 PM 46.1°F7.8°C 27.4°F-2.6°C 48% 1.9 mph WNW3.1 kmh WNW 11.3 mph18.2 kmh 30.35 in1027.8 mb 0.00 in0.0 mm 0.00 in0.0 mm 0.00 in0.0 mm
03:56 PM 46.1°F7.8°C 26.9°F-2.8°C 47% 2.6 mph NW4.2 kmh NW 9.0 mph14.5 kmh 30.34 in1027.4 mb 0.00 in0.0 mm 0.00 in0.0 mm 0.00 in0.0 mm
04:01 PM 45.9°F7.7°C 26.2°F-3.2°C 46% 2.9 mph N4.7 kmh N 9.0 mph14.5 kmh 30.34 in1027.4 mb 0.00 in0.0 mm 0.00 in0.0 mm 0.00 in0.0 mm
04:06 PM 45.8°F7.7°C 27.1°F-2.7°C 48% 3.1 mph N5.0 kmh N 7.5 mph12.1 kmh 30.34 in1027.4 mb 0.00 in0.0 mm 0.00 in0.0 mm 0.00 in0.0 mm
04:11 PM 45.7°F7.6°C 26.5°F-3.1°C 47% 3.8 mph N6.1 kmh N 8.8 mph14.2 kmh 30.34 in1027.4 mb 0.00 in0.0 mm 0.00 in0.0 mm 0.00 in0.0 mm
04:16 PM 45.8°F7.7°C 27.1°F-2.7°C 48% 3.4 mph N5.5 kmh N 8.8 mph14.2 kmh 30.34 in1027.4 mb 0.00 in0.0 mm 0.00 in0.0 mm 0.00 in0.0 mm
04:21 PM 45.5°F7.5°C 26.3°F-3.2°C 47% 5.0 mph N8.0 kmh N 10.0 mph16.1 kmh 30.34 in1027.4 mb 0.00 in0.0 mm 0.00 in0.0 mm 0.00 in0.0 mm
04:26 PM 45.3°F7.4°C 26.7°F-2.9°C 48% 3.5 mph NE5.6 kmh NE 10.0 mph16.1 kmh 30.34 in1027.4 mb 0.00 in0.0 mm 0.00 in0.0 mm 0.00 in0.0 mm
04:31 PM 45.2°F7.3°C 27.1°F-2.7°C 49% 1.3 mph N2.1 kmh N 8.0 mph12.9 kmh 30.34 in1027.4 mb 0.00 in0.0 mm 0.00 in0.0 mm 0.00 in0.0 mm
04:36 PM 45.1°F7.3°C 27.5°F-2.5°C 50% 2.0 mph NNW3.2 kmh NNW 8.0 mph12.9 kmh 30.34 in1027.4 mb 0.00 in0.0 mm 0.00 in0.0 mm 0.00 in0.0 mm
04:41 PM 44.8°F7.1°C 26.7°F-2.9°C 49% 2.8 mph N4.5 kmh N 8.8 mph14.2 kmh 30.34 in1027.4 mb 0.00 in0.0 mm 0.00 in0.0 mm 0.00 in0.0 mm
04:46 PM 44.7°F7.1°C 26.6°F-3.0°C 49% 2.4 mph NNW3.9 kmh NNW 8.8 mph14.2 kmh 30.35 in1027.8 mb 0.00 in0.0 mm 0.00 in0.0 mm 0.00 in0.0 mm
04:51 PM 44.6°F7.0°C 27.1°F-2.7°C 50% 1.5 mph NW2.4 kmh NW 7.5 mph12.1 kmh 30.35 in1027.8 mb 0.00 in0.0 mm 0.00 in0.0 mm 0.00 in0.0 mm
04:56 PM 44.4°F6.9°C 26.4°F-3.1°C 49% 2.9 mph N4.7 kmh N 7.5 mph12.1 kmh 30.35 in1027.8 mb 0.00 in0.0 mm 0.00 in0.0 mm 0.00 in0.0 mm
05:01 PM 44.3°F6.8°C 26.8°F-2.9°C 50% 3.8 mph N6.1 kmh N 7.5 mph12.1 kmh 30.35 in1027.8 mb 0.00 in0.0 mm 0.00 in0.0 mm 0.00 in0.0 mm
05:06 PM 44.1°F6.7°C 27.6°F-2.4°C 52% 1.3 mph N2.1 kmh N 7.5 mph12.1 kmh 30.35 in1027.8 mb 0.00 in0.0 mm 0.00 in0.0 mm 0.00 in0.0 mm
05:11 PM 43.8°F6.6°C 26.8°F-2.9°C 51% 2.8 mph N4.5 kmh N 7.0 mph11.3 kmh 30.36 in1028.1 mb 0.00 in0.0 mm 0.00 in0.0 mm 0.00 in0.0 mm
05:16 PM 43.4°F6.3°C 25.9°F-3.4°C 50% 2.4 mph N3.9 kmh N 6.3 mph10.1 kmh 30.36 in1028.1 mb 0.00 in0.0 mm 0.00 in0.0 mm 0.00 in0.0 mm
05:21 PM 43.1°F6.2°C 27.6°F-2.4°C 54% 1.6 mph ESE2.6 kmh ESE 6.3 mph10.1 kmh 30.36 in1028.1 mb 0.00 in0.0 mm 0.00 in0.0 mm 0.00 in0.0 mm
05:26 PM 42.8°F6.0°C 25.9°F-3.4°C 51% 2.7 mph N4.3 kmh N 5.0 mph8.0 kmh 30.36 in1028.1 mb 0.00 in0.0 mm 0.00 in0.0 mm 0.00 in0.0 mm
05:31 PM 42.5°F5.8°C 26.6°F-3.0°C 53% 1.3 mph NNW2.1 kmh NNW 5.0 mph8.0 kmh 30.37 in1028.4 mb 0.00 in0.0 mm 0.00 in0.0 mm 0.00 in0.0 mm
05:36 PM 42.2°F5.7°C 26.3°F-3.2°C 53% 1.9 mph N3.1 kmh N 4.0 mph6.4 kmh 30.36 in1028.1 mb 0.00 in0.0 mm 0.00 in0.0 mm 0.00 in0.0 mm
05:41 PM 42.1°F5.6°C 25.7°F-3.5°C 52% 3.2 mph N5.1 kmh N 6.3 mph10.1 kmh 30.37 in1028.4 mb 0.00 in0.0 mm 0.00 in0.0 mm 0.00 in0.0 mm
05:46 PM 42.0°F5.6°C 25.6°F-3.6°C 52% 2.6 mph N4.2 kmh N 6.3 mph10.1 kmh 30.37 in1028.4 mb 0.00 in0.0 mm 0.00 in0.0 mm 0.00 in0.0 mm
05:51 PM 41.7°F5.4°C 26.3°F-3.2°C 54% 1.5 mph N2.4 kmh N 6.3 mph10.1 kmh 30.36 in1028.1 mb 0.00 in0.0 mm 0.00 in0.0 mm 0.00 in0.0 mm
05:56 PM 41.3°F5.2°C 25.9°F-3.4°C 54% 2.5 mph N4.0 kmh N 5.0 mph8.0 kmh 30.37 in1028.4 mb 0.00 in0.0 mm 0.00 in0.0 mm 0.00 in0.0 mm
06:01 PM 41.0°F5.0°C 26.5°F-3.1°C 56% 1.3 mph NE2.1 kmh NE 5.0 mph8.0 kmh 30.36 in1028.1 mb 0.00 in0.0 mm 0.00 in0.0 mm 0.00 in0.0 mm
06:06 PM 40.5°F4.7°C 26.5°F-3.1°C 57% Calm Calm 3.0 mph4.8 kmh 30.37 in1028.4 mb 0.00 in0.0 mm 0.00 in0.0 mm 0.00 in0.0 mm
06:11 PM 40.0°F4.4°C 26.5°F-3.1°C 58% 1.4 mph N2.3 kmh N 3.0 mph4.8 kmh 30.37 in1028.4 mb 0.00 in0.0 mm 0.00 in0.0 mm 0.00 in0.0 mm
06:16 PM 39.5°F4.2°C 25.6°F-3.6°C 57% Calm Calm 2.5 mph4.0 kmh 30.37 in1028.4 mb 0.00 in0.0 mm 0.00 in0.0 mm 0.00 in0.0 mm
06:21 PM 39.2°F4.0°C 25.7°F-3.5°C 58% 1.6 mph NE2.6 kmh NE 2.5 mph4.0 kmh 30.37 in1028.4 mb 0.00 in0.0 mm 0.00 in0.0 mm 0.00 in0.0 mm
06:26 PM 38.9°F3.8°C 25.4°F-3.7°C 58% 1.6 mph N2.6 kmh N 2.5 mph4.0 kmh 30.37 in1028.4 mb 0.00 in0.0 mm 0.00 in0.0 mm 0.00 in0.0 mm
06:31 PM 38.8°F3.8°C 25.3°F-3.7°C 58% 1.3 mph NNE2.1 kmh NNE 2.5 mph4.0 kmh 30.37 in1028.4 mb 0.00 in0.0 mm 0.00 in0.0 mm 0.00 in0.0 mm
06:36 PM 38.6°F3.7°C 26.0°F-3.3°C 60% 1.4 mph NE2.3 kmh NE 2.5 mph4.0 kmh 30.37 in1028.4 mb 0.00 in0.0 mm 0.00 in0.0 mm 0.00 in0.0 mm
06:41 PM 38.4°F3.6°C 26.2°F-3.2°C 61% 1.3 mph ENE2.1 kmh ENE 2.5 mph4.0 kmh 30.37 in1028.4 mb 0.00 in0.0 mm 0.00 in0.0 mm 0.00 in0.0 mm
06:46 PM 37.9°F3.3°C 26.5°F-3.1°C 63% Calm Calm 2.0 mph3.2 kmh 30.38 in1028.8 mb 0.00 in0.0 mm 0.00 in0.0 mm 0.00 in0.0 mm
06:51 PM 37.2°F2.9°C 27.0°F-2.8°C 66% Calm Calm 2.0 mph3.2 kmh 30.38 in1028.8 mb 0.00 in0.0 mm 0.00 in0.0 mm 0.00 in0.0 mm
06:56 PM 36.5°F2.5°C 26.3°F-3.2°C 66% 1.3 mph ENE2.1 kmh ENE 1.3 mph2.1 kmh 30.38 in1028.8 mb 0.00 in0.0 mm 0.00 in0.0 mm 0.00 in0.0 mm
07:01 PM 35.9°F2.2°C 27.1°F-2.7°C 70% Calm Calm 1.3 mph2.1 kmh 30.38 in1028.8 mb 0.00 in0.0 mm 0.00 in0.0 mm 0.00 in0.0 mm
07:06 PM 35.3°F1.8°C 26.6°F-3.0°C 70% Calm Calm 1.3 mph2.1 kmh 30.38 in1028.8 mb 0.00 in0.0 mm 0.00 in0.0 mm 0.00 in0.0 mm
07:11 PM 34.9°F1.6°C 25.8°F-3.4°C 69% Calm Calm 1.0 mph1.6 kmh 30.38 in1028.8 mb 0.00 in0.0 mm 0.00 in0.0 mm 0.00 in0.0 mm
07:16 PM 34.5°F1.4°C 26.1°F-3.3°C 71% 1.3 mph ENE2.1 kmh ENE 1.3 mph2.1 kmh 30.38 in1028.8 mb 0.00 in0.0 mm 0.00 in0.0 mm 0.00 in0.0 mm
07:21 PM 34.1°F1.2°C 26.7°F-2.9°C 74% Calm Calm 1.3 mph2.1 kmh 30.38 in1028.8 mb 0.00 in0.0 mm 0.00 in0.0 mm 0.00 in0.0 mm
07:26 PM 33.6°F0.9°C 26.6°F-3.0°C 75% Calm Calm 1.0 mph1.6 kmh 30.38 in1028.8 mb 0.00 in0.0 mm 0.00 in0.0 mm 0.00 in0.0 mm
07:31 PM 33.3°F0.7°C 26.6°F-3.0°C 76% Calm Calm 1.3 mph2.1 kmh 30.38 in1028.8 mb 0.00 in0.0 mm 0.00 in0.0 mm 0.00 in0.0 mm
07:36 PM 33.3°F0.7°C 26.9°F-2.8°C 77% 2.0 mph NE3.2 kmh NE 2.5 mph4.0 kmh 30.38 in1028.8 mb 0.00 in0.0 mm 0.00 in0.0 mm 0.00 in0.0 mm
07:41 PM 33.2°F0.7°C 27.1°F-2.7°C 78% 1.3 mph ENE2.1 kmh ENE 2.5 mph4.0 kmh 30.38 in1028.8 mb 0.00 in0.0 mm 0.00 in0.0 mm 0.00 in0.0 mm
07:46 PM 33.1°F0.6°C 27.0°F-2.8°C 78% 1.3 mph ENE2.1 kmh ENE 2.0 mph3.2 kmh 30.38 in1028.8 mb 0.00 in0.0 mm 0.00 in0.0 mm 0.00 in0.0 mm
07:51 PM 33.2°F0.7°C 27.1°F-2.7°C 78% Calm Calm 2.0 mph3.2 kmh 30.38 in1028.8 mb 0.00 in0.0 mm 0.00 in0.0 mm 0.00 in0.0 mm
07:56 PM 33.0°F0.6°C 26.9°F-2.8°C 78% 1.3 mph E2.1 kmh E 1.3 mph2.1 kmh 30.38 in1028.8 mb 0.00 in0.0 mm 0.00 in0.0 mm 0.00 in0.0 mm
08:01 PM 32.7°F0.4°C 26.6°F-3.0°C 78% Calm Calm 1.3 mph2.1 kmh 30.38 in1028.8 mb 0.00 in0.0 mm 0.00 in0.0 mm 0.00 in0.0 mm
08:06 PM 32.5°F0.3°C 26.1°F-3.3°C 77% 1.3 mph E2.1 kmh E 1.3 mph2.1 kmh 30.38 in1028.8 mb 0.00 in0.0 mm 0.00 in0.0 mm 0.00 in0.0 mm
08:11 PM 32.5°F0.3°C 26.1°F-3.3°C 77% Calm Calm 1.3 mph2.1 kmh 30.38 in1028.8 mb 0.00 in0.0 mm 0.00 in0.0 mm 0.00 in0.0 mm
08:16 PM 32.4°F0.2°C 26.3°F-3.2°C 78% Calm Calm 1.0 mph1.6 kmh 30.38 in1028.8 mb 0.00 in0.0 mm 0.00 in0.0 mm 0.00 in0.0 mm
08:21 PM 32.3°F0.2°C 25.6°F-3.6°C 76% Calm Calm 1.3 mph2.1 kmh 30.38 in1028.8 mb 0.00 in0.0 mm 0.00 in0.0 mm 0.00 in0.0 mm
08:26 PM 32.4°F0.2°C 25.7°F-3.5°C 76% Calm Calm 1.3 mph2.1 kmh 30.38 in1028.8 mb 0.00 in0.0 mm 0.00 in0.0 mm 0.00 in0.0 mm
08:31 PM 32.2°F0.1°C 25.5°F-3.6°C 76% Calm Calm -- 30.38 in1028.8 mb 0.00 in0.0 mm 0.00 in0.0 mm 0.00 in0.0 mm
08:36 PM 32.0°F0.0°C 24.7°F-4.1°C 74% Calm Calm -- 30.38 in1028.8 mb 0.00 in0.0 mm 0.00 in0.0 mm 0.00 in0.0 mm
08:41 PM 31.9°F-0.1°C 24.6°F-4.1°C 74% Calm Calm -- 30.38 in1028.8 mb 0.00 in0.0 mm 0.00 in0.0 mm 0.00 in0.0 mm
08:46 PM 31.7°F-0.2°C 25.0°F-3.9°C 76% Calm Calm -- 30.38 in1028.8 mb 0.00 in0.0 mm 0.00 in0.0 mm 0.00 in0.0 mm
08:51 PM 31.4°F-0.3°C 24.4°F-4.2°C 75% Calm Calm -- 30.38 in1028.8 mb 0.00 in0.0 mm 0.00 in0.0 mm 0.00 in0.0 mm
08:56 PM 31.3°F-0.4°C 24.6°F-4.1°C 76% Calm Calm -- 30.38 in1028.8 mb 0.00 in0.0 mm 0.00 in0.0 mm 0.00 in0.0 mm
09:01 PM 31.1°F-0.5°C 25.4°F-3.7°C 79% Calm Calm -- 30.38 in1028.8 mb 0.00 in0.0 mm 0.00 in0.0 mm 0.00 in0.0 mm
09:07 PM 30.7°F-0.7°C 24.4°F-4.2°C 77% Calm Calm -- 30.38 in1028.8 mb 0.00 in0.0 mm 0.00 in0.0 mm 0.00 in0.0 mm
09:12 PM 30.5°F-0.8°C 25.4°F-3.7°C 81% Calm Calm -- 30.38 in1028.8 mb 0.00 in0.0 mm 0.00 in0.0 mm 0.00 in0.0 mm
09:17 PM 30.2°F-1.0°C 25.4°F-3.7°C 82% Calm Calm -- 30.38 in1028.8 mb 0.00 in0.0 mm 0.00 in0.0 mm 0.00 in0.0 mm
09:22 PM 29.8°F-1.2°C 25.0°F-3.9°C 82% Calm Calm -- 30.38 in1028.8 mb 0.00 in0.0 mm 0.00 in0.0 mm 0.00 in0.0 mm
09:27 PM 29.6°F-1.3°C 25.1°F-3.8°C 83% Calm Calm -- 30.38 in1028.8 mb 0.00 in0.0 mm 0.00 in0.0 mm 0.00 in0.0 mm
09:32 PM 29.4°F-1.4°C 24.9°F-3.9°C 83% Calm Calm -- 30.39 in1029.1 mb 0.00 in0.0 mm 0.00 in0.0 mm 0.00 in0.0 mm
09:37 PM 29.3°F-1.5°C 25.0°F-3.9°C 84% Calm Calm -- 30.39 in1029.1 mb 0.00 in0.0 mm 0.00 in0.0 mm 0.00 in0.0 mm
09:42 PM 29.1°F-1.6°C 24.8°F-4.0°C 84% Calm Calm -- 30.39 in1029.1 mb 0.00 in0.0 mm 0.00 in0.0 mm 0.00 in0.0 mm
09:47 PM 28.9°F-1.7°C 24.9°F-3.9°C 85% Calm Calm -- 30.39 in1029.1 mb 0.00 in0.0 mm 0.00 in0.0 mm 0.00 in0.0 mm
09:52 PM 28.7°F-1.8°C 24.7°F-4.1°C 85% Calm Calm -- 30.39 in1029.1 mb 0.00 in0.0 mm 0.00 in0.0 mm 0.00 in0.0 mm
09:57 PM 28.6°F-1.9°C 24.9°F-3.9°C 86% Calm Calm -- 30.39 in1029.1 mb 0.00 in0.0 mm 0.00 in0.0 mm 0.00 in0.0 mm
10:02 PM 28.6°F-1.9°C 24.9°F-3.9°C 86% Calm Calm -- 30.39 in1029.1 mb 0.00 in0.0 mm 0.00 in0.0 mm 0.00 in0.0 mm
10:07 PM 28.5°F-1.9°C 24.8°F-4.0°C 86% Calm Calm -- 30.39 in1029.1 mb 0.00 in0.0 mm 0.00 in0.0 mm 0.00 in0.0 mm
10:12 PM 28.5°F-1.9°C 24.8°F-4.0°C 86% Calm Calm -- 30.39 in1029.1 mb 0.00 in0.0 mm 0.00 in0.0 mm 0.00 in0.0 mm
10:17 PM 28.3°F-2.1°C 24.6°F-4.1°C 86% Calm Calm -- 30.39 in1029.1 mb 0.00 in0.0 mm 0.00 in0.0 mm 0.00 in0.0 mm
10:22 PM 28.2°F-2.1°C 24.8°F-4.0°C 87% Calm Calm -- 30.39 in1029.1 mb 0.00 in0.0 mm 0.00 in0.0 mm 0.00 in0.0 mm
10:27 PM 28.1°F-2.2°C 24.7°F-4.1°C 87% Calm Calm -- 30.39 in1029.1 mb 0.00 in0.0 mm 0.00 in0.0 mm 0.00 in0.0 mm
10:32 PM 28.1°F-2.2°C 24.7°F-4.1°C 87% Calm Calm -- 30.39 in1029.1 mb 0.00 in0.0 mm 0.00 in0.0 mm 0.00 in0.0 mm
10:37 PM 28.1°F-2.2°C 24.7°F-4.1°C 87% Calm Calm -- 30.38 in1028.8 mb 0.00 in0.0 mm 0.00 in0.0 mm 0.00 in0.0 mm
10:42 PM 28.0°F-2.2°C 24.6°F-4.1°C 87% Calm Calm -- 30.38 in1028.8 mb 0.00 in0.0 mm 0.00 in0.0 mm 0.00 in0.0 mm
10:47 PM 28.1°F-2.2°C 25.0°F-3.9°C 88% Calm Calm -- 30.38 in1028.8 mb 0.00 in0.0 mm 0.00 in0.0 mm 0.00 in0.0 mm
10:52 PM 28.1°F-2.2°C 25.0°F-3.9°C 88% Calm Calm -- 30.38 in1028.8 mb 0.00 in0.0 mm 0.00 in0.0 mm 0.00 in0.0 mm
10:57 PM 28.0°F-2.2°C 24.9°F-3.9°C 88% Calm Calm -- 30.37 in1028.4 mb 0.00 in0.0 mm 0.00 in0.0 mm 0.00 in0.0 mm
11:02 PM 27.8°F-2.3°C 24.7°F-4.1°C 88% Calm Calm -- 30.37 in1028.4 mb 0.00 in0.0 mm 0.00 in0.0 mm 0.00 in0.0 mm
11:07 PM 27.7°F-2.4°C 24.6°F-4.1°C 88% Calm Calm -- 30.37 in1028.4 mb 0.00 in0.0 mm 0.00 in0.0 mm 0.00 in0.0 mm
11:12 PM 27.7°F-2.4°C 24.6°F-4.1°C 88% Calm Calm -- 30.37 in1028.4 mb 0.00 in0.0 mm 0.00 in0.0 mm 0.00 in0.0 mm
11:17 PM 27.6°F-2.4°C 24.5°F-4.2°C 88% Calm Calm -- 30.36 in1028.1 mb 0.00 in0.0 mm 0.00 in0.0 mm 0.00 in0.0 mm
11:22 PM 27.7°F-2.4°C 24.8°F-4.0°C 89% Calm Calm -- 30.36 in1028.1 mb 0.00 in0.0 mm 0.00 in0.0 mm 0.00 in0.0 mm
11:27 PM 27.6°F-2.4°C 24.7°F-4.1°C 89% Calm Calm -- 30.36 in1028.1 mb 0.00 in0.0 mm 0.00 in0.0 mm 0.00 in0.0 mm
11:32 PM 27.5°F-2.5°C 24.6°F-4.1°C 89% Calm Calm -- 30.36 in1028.1 mb 0.00 in0.0 mm 0.00 in0.0 mm 0.00 in0.0 mm
11:37 PM 27.6°F-2.4°C 24.7°F-4.1°C 89% Calm Calm -- 30.36 in1028.1 mb 0.00 in0.0 mm 0.00 in0.0 mm 0.00 in0.0 mm
11:42 PM 27.5°F-2.5°C 24.6°F-4.1°C 89% Calm Calm -- 30.36 in1028.1 mb 0.00 in0.0 mm 0.00 in0.0 mm 0.00 in0.0 mm
11:47 PM 27.4°F-2.6°C 24.5°F-4.2°C 89% Calm Calm -- 30.36 in1028.1 mb 0.00 in0.0 mm 0.00 in0.0 mm 0.00 in0.0 mm
11:52 PM 27.5°F-2.5°C 24.6°F-4.1°C 89% Calm Calm -- 30.36 in1028.1 mb 0.00 in0.0 mm 0.00 in0.0 mm 0.00 in0.0 mm
11:57 PM 27.5°F-2.5°C 24.6°F-4.1°C 89% Calm Calm -- 30.36 in1028.1 mb 0.00 in0.0 mm 0.00 in0.0 mm 0.00 in0.0 mm